createdAt,value
2022-09-15T00:01:43.339Z,99799.53
2022-09-15T00:04:30.130Z,99798.59
2022-09-15T00:07:17.174Z,99796.03
2022-09-15T00:10:04.386Z,99789.00
2022-09-15T00:12:52.732Z,99801.53
2022-09-15T00:15:40.213Z,99800.66
2022-09-15T00:18:27.005Z,99789.28
2022-09-15T00:21:15.957Z,99799.81
2022-09-15T00:24:03.386Z,99800.91
2022-09-15T00:26:49.971Z,99794.91
2022-09-15T00:29:38.041Z,99799.28
2022-09-15T00:32:24.837Z,99789.59
2022-09-15T00:35:12.263Z,99795.84
2022-09-15T00:37:58.923Z,99798.56
2022-09-15T00:40:47.186Z,99789.69
2022-09-15T00:43:55.322Z,99792.41
2022-09-15T00:46:58.682Z,99791.72
2022-09-15T00:49:59.246Z,99790.16
2022-09-15T00:52:49.943Z,99789.13
2022-09-15T00:55:39.790Z,99791.25
2022-09-15T00:58:29.219Z,99797.56
2022-09-15T01:01:17.815Z,99787.91
2022-09-15T01:04:06.111Z,99784.56
2022-09-15T01:06:57.145Z,99780.34
2022-09-15T01:09:50.468Z,99780.47
2022-09-15T01:12:37.280Z,99783.28
2022-09-15T01:15:27.659Z,99785.22
2022-09-15T01:18:22.146Z,99783.50
2022-09-15T01:21:44.531Z,99793.34
2022-09-15T01:24:45.005Z,99792.31
2022-09-15T01:28:10.447Z,99793.25
2022-09-15T01:31:04.565Z,99793.25
2022-09-15T01:33:57.432Z,99793.09
2022-09-15T01:36:49.376Z,99793.25
2022-09-15T01:39:41.285Z,99797.72
2022-09-15T01:42:31.476Z,99806.59
2022-09-15T01:45:23.659Z,99801.31
2022-09-15T01:48:12.370Z,99800.44
2022-09-15T01:51:03.523Z,99807.53
2022-09-15T01:53:52.667Z,99787.72
2022-09-15T01:56:41.079Z,99742.53
2022-09-15T01:59:27.521Z,99799.97
2022-09-15T02:02:19.996Z,99815.03
2022-09-15T02:05:16.716Z,99807.16
2022-09-15T02:08:10.042Z,99801.91
2022-09-15T02:11:04.317Z,99802.78
2022-09-15T02:14:00.750Z,99803.72
2022-09-15T02:16:51.092Z,99810.03
2022-09-15T02:19:42.514Z,99803.00
2022-09-15T02:22:35.100Z,99806.53
2022-09-15T02:25:26.122Z,99810.88
2022-09-15T02:28:15.290Z,99803.78
2022-09-15T02:31:05.000Z,99805.75
2022-09-15T02:33:59.070Z,99791.31
2022-09-15T02:36:46.924Z,99805.13
2022-09-15T02:39:38.447Z,99809.72
2022-09-15T02:42:25.952Z,99813.28
2022-09-15T02:45:12.385Z,99810.78
2022-09-15T02:47:59.313Z,99803.84
2022-09-15T02:50:45.623Z,99802.28
2022-09-15T02:53:32.486Z,99796.91
2022-09-15T02:56:21.001Z,99798.03
2022-09-15T02:59:07.652Z,99792.81
2022-09-15T03:01:54.261Z,99800.75
2022-09-15T03:04:40.780Z,99793.81
2022-09-15T03:07:28.589Z,99803.47
2022-09-15T03:10:16.209Z,99800.84
2022-09-15T03:13:04.712Z,99776.88
2022-09-15T03:15:51.630Z,99795.75
2022-09-15T03:18:39.133Z,99800.34
2022-09-15T03:21:27.394Z,99794.25
2022-09-15T03:24:15.396Z,99791.84
2022-09-15T03:27:02.266Z,99794.78
2022-09-15T03:29:50.472Z,99799.31
2022-09-15T03:32:37.487Z,99791.34
2022-09-15T03:35:25.332Z,99792.22
2022-09-15T03:38:12.090Z,99793.22
2022-09-15T03:41:01.156Z,99794.22
2022-09-15T03:43:48.309Z,99785.50
2022-09-15T03:46:36.557Z,99788.28
2022-09-15T03:49:23.322Z,99783.13
2022-09-15T03:52:10.056Z,99785.78
2022-09-15T03:54:56.572Z,99784.84
2022-09-15T03:57:43.402Z,99788.44
2022-09-15T04:00:31.413Z,99786.66
2022-09-15T04:03:19.533Z,99784.78
2022-09-15T04:06:06.805Z,99796.38
2022-09-15T04:08:54.327Z,99790.94
2022-09-15T04:11:42.796Z,99787.34
2022-09-15T04:14:29.193Z,99779.63
2022-09-15T04:17:16.243Z,99774.91
2022-09-15T04:20:05.821Z,99769.97
2022-09-15T04:22:52.607Z,99781.69
2022-09-15T04:25:39.427Z,99778.66
2022-09-15T04:28:26.267Z,99786.63
2022-09-15T04:31:14.994Z,99782.88
2022-09-15T04:34:02.131Z,99760.44
2022-09-15T04:36:50.045Z,99775.97
2022-09-15T04:39:36.659Z,99776.50
2022-09-15T04:42:24.088Z,99784.78
2022-09-15T04:45:11.433Z,99784.28
2022-09-15T04:47:57.813Z,99783.44
2022-09-15T04:50:44.526Z,99777.44
2022-09-15T04:53:50.364Z,99781.97
2022-09-15T04:56:37.064Z,99772.59
2022-09-15T04:59:23.858Z,99774.22
2022-09-15T05:02:10.768Z,99776.19
2022-09-15T05:04:57.482Z,99774.63
2022-09-15T05:07:44.112Z,99776.97
2022-09-15T05:10:32.570Z,99775.25
2022-09-15T05:13:20.342Z,99767.53
2022-09-15T05:16:09.113Z,99774.63
2022-09-15T05:19:00.406Z,99774.47
2022-09-15T05:21:48.957Z,99774.41
2022-09-15T05:24:36.881Z,99773.38
2022-09-15T05:27:26.087Z,99774.56
2022-09-15T05:30:36.735Z,99789.38
2022-09-15T05:33:21.603Z,99781.47
2022-09-15T05:36:08.959Z,99793.06
2022-09-15T05:38:57.486Z,99791.78
2022-09-15T05:41:44.042Z,99787.09
2022-09-15T05:44:32.293Z,99780.06
2022-09-15T05:47:18.701Z,99776.16
2022-09-15T05:50:05.845Z,99778.28
2022-09-15T05:52:52.768Z,99790.56
2022-09-15T05:55:39.313Z,99787.25
2022-09-15T05:58:26.874Z,99790.34
2022-09-15T06:01:16.967Z,99795.41
2022-09-15T06:04:04.066Z,99795.59
2022-09-15T06:06:51.280Z,99796.09
2022-09-15T06:09:39.392Z,99796.38
2022-09-15T06:12:26.315Z,99797.13
2022-09-15T06:15:13.250Z,99801.09
2022-09-15T06:18:01.194Z,99799.38
2022-09-15T06:20:48.049Z,99795.44
2022-09-15T06:23:35.010Z,99796.97
2022-09-15T06:26:21.990Z,99793.19
2022-09-15T06:29:08.836Z,99801.38
2022-09-15T06:31:57.215Z,99803.78
2022-09-15T06:34:45.305Z,99808.16
2022-09-15T06:37:32.370Z,99814.66
2022-09-15T06:40:19.422Z,99806.31
2022-09-15T06:43:05.982Z,99803.84
2022-09-15T06:45:52.666Z,99800.81
2022-09-15T06:48:40.857Z,99784.69
2022-09-15T06:51:31.491Z,99802.13
2022-09-15T06:54:18.537Z,99810.66
2022-09-15T06:57:05.253Z,99812.47
2022-09-15T06:59:51.755Z,99816.94
2022-09-15T07:02:38.662Z,99819.31
2022-09-15T07:05:25.687Z,99816.88
2022-09-15T07:08:14.294Z,99822.78
2022-09-15T07:11:01.049Z,99824.31
2022-09-15T07:13:48.809Z,99835.50
2022-09-15T07:16:35.425Z,99825.19
2022-09-15T07:19:24.511Z,99832.22
2022-09-15T07:22:12.212Z,99821.56
2022-09-15T07:25:01.292Z,99829.59
2022-09-15T07:27:48.273Z,99831.53
2022-09-15T07:30:35.125Z,99832.22
2022-09-15T07:33:27.146Z,99830.03
2022-09-15T07:36:15.535Z,99834.41
2022-09-15T07:39:04.581Z,99833.28
2022-09-15T07:41:52.316Z,99843.94
2022-09-15T07:44:39.058Z,99848.59
2022-09-15T07:47:26.012Z,99837.44
2022-09-15T07:50:14.438Z,99842.88
2022-09-15T07:53:00.905Z,99832.53
2022-09-15T07:55:47.751Z,99842.06
2022-09-15T07:58:35.932Z,99844.34
2022-09-15T08:01:23.156Z,99843.59
2022-09-15T08:04:09.876Z,99834.38
2022-09-15T08:06:56.579Z,99845.22
2022-09-15T08:09:43.304Z,99843.13
2022-09-15T08:12:30.787Z,99839.69
2022-09-15T08:15:19.149Z,99846.00
2022-09-15T08:18:06.676Z,99829.72
2022-09-15T08:20:53.310Z,99848.94
2022-09-15T08:23:40.402Z,99851.09
2022-09-15T08:26:28.884Z,99854.13
2022-09-15T08:29:15.822Z,99834.75
2022-09-15T08:32:03.964Z,99850.63
2022-09-15T08:34:50.578Z,99850.16
2022-09-15T08:37:37.453Z,99843.66
2022-09-15T08:40:38.249Z,99844.09
2022-09-15T08:43:28.873Z,99847.06
2022-09-15T08:46:20.923Z,99853.72
2022-09-15T08:49:30.585Z,99851.31
2022-09-15T08:52:29.665Z,99860.59
2022-09-15T08:55:21.411Z,99852.69
2022-09-15T08:58:14.445Z,99861.78
2022-09-15T09:01:07.166Z,99861.91
2022-09-15T09:04:17.498Z,99863.06
2022-09-15T09:07:21.566Z,99853.19
2022-09-15T09:10:16.540Z,99849.66
2022-09-15T09:13:15.618Z,99854.81
2022-09-15T09:16:19.289Z,99850.31
2022-09-15T09:19:56.510Z,99846.81
2022-09-15T09:22:47.430Z,99847.22
2022-09-15T09:25:36.187Z,99850.13
2022-09-15T09:28:30.226Z,99839.19
2022-09-15T09:31:21.791Z,99843.69
2022-09-15T09:34:20.613Z,99847.13
2022-09-15T09:37:12.069Z,99844.22
2022-09-15T09:40:00.457Z,99846.56
2022-09-15T09:42:47.593Z,99847.84
2022-09-15T09:45:34.284Z,99849.63
2022-09-15T09:48:23.265Z,99849.75
2022-09-15T09:51:31.307Z,99844.31
2022-09-15T09:54:18.094Z,99839.69
2022-09-15T09:57:30.029Z,99842.19
2022-09-15T10:00:33.391Z,99842.13
2022-09-15T10:03:21.898Z,99847.47
2022-09-15T10:06:14.175Z,99837.69
2022-09-15T10:09:04.729Z,99835.19
2022-09-15T10:11:53.893Z,99843.13
2022-09-15T10:14:45.490Z,99848.38
2022-09-15T10:17:45.231Z,99844.78
2022-09-15T10:20:35.679Z,99848.78
2022-09-15T10:23:27.580Z,99849.63
2022-09-15T10:26:23.580Z,99844.63
2022-09-15T10:29:15.919Z,99841.16
2022-09-15T10:32:20.590Z,99842.47
2022-09-15T10:35:12.781Z,99839.69
2022-09-15T10:38:06.020Z,99845.28
2022-09-15T10:41:02.090Z,99838.84
2022-09-15T10:44:05.957Z,99834.25
2022-09-15T10:47:04.231Z,99839.72
2022-09-15T10:50:07.410Z,99839.06
2022-09-15T10:53:09.850Z,99848.00
2022-09-15T10:56:04.553Z,99840.38
2022-09-15T10:59:03.511Z,99839.53
2022-09-15T11:02:04.006Z,99843.22
2022-09-15T11:05:09.669Z,99850.59
2022-09-15T11:08:19.141Z,99850.56
2022-09-15T11:11:10.727Z,99851.25
2022-09-15T11:14:12.510Z,99844.81
2022-09-15T11:17:15.639Z,99849.63
2022-09-15T11:20:25.375Z,99838.31
2022-09-15T11:23:18.955Z,99836.84
2022-09-15T11:26:08.537Z,99839.38
2022-09-15T11:28:59.433Z,99840.59
2022-09-15T11:31:50.750Z,99833.88
2022-09-15T11:34:45.832Z,99841.94
2022-09-15T11:37:40.834Z,99840.38
2022-09-15T11:40:30.321Z,99839.19
2022-09-15T11:43:22.867Z,99843.56
2022-09-15T11:46:17.288Z,99840.53
2022-09-15T11:49:08.156Z,99839.81
2022-09-15T11:52:02.610Z,99844.31
2022-09-15T11:54:58.840Z,99845.34
2022-09-15T11:57:52.053Z,99842.94
2022-09-15T12:00:49.888Z,99841.56
2022-09-15T12:03:41.303Z,99845.06
2022-09-15T12:06:34.124Z,99842.06
2022-09-15T12:09:22.098Z,99838.66
2022-09-15T12:12:15.266Z,99844.50
2022-09-15T12:15:09.383Z,99850.25
2022-09-15T12:18:34.376Z,99842.06
2022-09-15T12:21:25.158Z,99842.41
2022-09-15T12:24:23.773Z,99850.06
2022-09-15T12:27:17.924Z,99854.69
2022-09-15T12:30:06.541Z,99849.97
2022-09-15T12:32:57.475Z,99834.94
2022-09-15T12:35:44.919Z,99851.75
2022-09-15T12:38:31.947Z,99823.50
2022-09-15T12:41:21.253Z,99837.72
2022-09-15T12:44:21.264Z,99845.06
2022-09-15T12:47:19.317Z,99833.47
2022-09-15T12:50:23.040Z,99831.19
2022-09-15T12:53:18.733Z,99825.03
2022-09-15T12:56:08.580Z,99829.78
2022-09-15T12:58:56.929Z,99826.66
2022-09-15T13:02:04.118Z,99832.72
2022-09-15T13:04:57.773Z,99838.56
2022-09-15T13:07:56.572Z,99828.97
2022-09-15T13:11:00.340Z,99829.88
2022-09-15T13:13:51.615Z,99827.19
2022-09-15T13:16:47.676Z,99823.53
2022-09-15T13:19:46.766Z,99832.75
2022-09-15T13:22:38.433Z,99821.28
2022-09-15T13:25:30.038Z,99817.03
2022-09-15T13:28:18.995Z,99823.00
2022-09-15T13:31:18.829Z,99821.53
2022-09-15T13:38:13.959Z,99811.13
2022-09-15T13:41:35.558Z,99821.72
2022-09-15T13:44:46.991Z,99810.56
2022-09-15T13:47:43.458Z,99806.03
2022-09-15T13:50:35.502Z,99806.66
2022-09-15T13:53:44.601Z,99797.69
2022-09-15T13:56:35.663Z,99800.25
2022-09-15T13:59:26.473Z,99797.53
2022-09-15T14:02:14.984Z,99799.09
2022-09-15T14:05:02.074Z,99789.09
2022-09-15T14:07:59.128Z,99787.91
2022-09-15T14:10:51.712Z,99793.75
2022-09-15T14:13:44.587Z,99794.03
2022-09-15T14:16:35.368Z,99782.09
2022-09-15T14:19:31.274Z,99787.72
2022-09-15T14:22:27.373Z,99787.72
2022-09-15T14:25:18.193Z,99782.50
2022-09-15T14:28:06.085Z,99778.13
2022-09-15T14:30:54.710Z,99784.94
2022-09-15T14:33:42.246Z,99780.00
2022-09-15T14:36:31.412Z,99782.78
2022-09-15T14:39:21.266Z,99788.16
2022-09-15T14:42:21.704Z,99789.72
2022-09-15T14:48:28.187Z,99788.03
2022-09-15T14:51:22.013Z,99793.28
2022-09-15T14:54:16.858Z,99784.47
2022-09-15T14:57:06.687Z,99787.44
2022-09-15T14:59:58.908Z,99794.31
2022-09-15T15:02:55.660Z,99790.75
2022-09-15T15:05:48.528Z,99800.75
2022-09-15T15:08:39.028Z,99806.97
2022-09-15T15:11:26.172Z,99815.16
2022-09-15T15:14:14.568Z,99829.56
2022-09-15T15:17:05.934Z,99817.75
2022-09-15T15:20:00.057Z,99817.97
2022-09-15T15:22:48.562Z,99825.28
2022-09-15T15:25:37.288Z,99825.75
2022-09-15T15:28:32.079Z,99830.41
2022-09-15T15:31:20.870Z,99832.72
2022-09-15T15:34:23.979Z,99845.53
2022-09-15T15:37:20.591Z,99844.72
2022-09-15T15:40:18.093Z,99839.94
2022-09-15T15:43:07.610Z,99849.25
2022-09-15T15:45:58.352Z,99845.56
2022-09-15T15:48:45.375Z,99836.91
2022-09-15T15:51:32.582Z,99841.09
2022-09-15T15:54:18.960Z,99837.56
2022-09-15T15:57:24.267Z,99840.03
2022-09-15T16:00:21.388Z,99834.69
2022-09-15T16:03:09.664Z,99834.31
2022-09-15T16:06:00.414Z,99834.91
2022-09-15T16:08:49.303Z,99834.31
2022-09-15T16:11:35.905Z,99833.66
2022-09-15T16:14:23.961Z,99833.09
2022-09-15T16:17:10.910Z,99837.47
2022-09-15T16:19:57.474Z,99828.31
2022-09-15T16:22:44.371Z,99827.41
2022-09-15T16:25:37.299Z,99823.63
2022-09-15T16:28:23.725Z,99819.41
2022-09-15T16:31:14.220Z,99826.09
2022-09-15T16:34:01.112Z,99835.56
2022-09-15T16:36:47.855Z,99830.97
2022-09-15T16:39:34.489Z,99841.88
2022-09-15T16:42:21.209Z,99840.28
2022-09-15T16:45:18.791Z,99826.69
2022-09-15T16:48:06.826Z,99836.69
2022-09-15T16:51:17.174Z,99839.97
2022-09-15T16:53:59.690Z,99844.25
2022-09-15T16:56:47.096Z,99837.78
2022-09-15T16:59:33.922Z,99845.13
2022-09-15T17:02:22.451Z,99839.13
2022-09-15T17:05:17.773Z,99833.97
2022-09-15T17:08:04.905Z,99843.78
2022-09-15T17:10:52.957Z,99830.19
2022-09-15T17:13:39.738Z,99833.78
2022-09-15T17:16:26.317Z,99833.19
2022-09-15T17:19:13.113Z,99846.03
2022-09-15T17:22:01.702Z,99847.63
2022-09-15T17:24:48.628Z,99845.94
2022-09-15T17:27:35.781Z,99852.97
2022-09-15T17:30:24.390Z,99841.72
2022-09-15T17:33:14.487Z,99843.25
2022-09-15T17:36:01.338Z,99843.06
2022-09-15T17:38:49.327Z,99846.38
2022-09-15T17:41:36.027Z,99848.28
2022-09-15T17:44:22.561Z,99858.34
2022-09-15T17:47:09.321Z,99855.97
2022-09-15T17:50:09.399Z,99857.69
2022-09-15T17:52:57.155Z,99858.81
2022-09-15T17:55:48.120Z,99860.53
2022-09-15T17:58:37.350Z,99856.75
2022-09-15T18:01:24.154Z,99848.34
2022-09-15T18:04:12.392Z,99853.31
2022-09-15T18:06:59.007Z,99867.56
2022-09-15T18:09:45.645Z,99875.75
2022-09-15T18:12:33.831Z,99882.41
2022-09-15T18:15:22.635Z,99874.63
2022-09-15T18:18:14.464Z,99871.19
2022-09-15T18:21:02.209Z,99869.56
2022-09-15T18:23:48.635Z,99875.31
2022-09-15T18:26:35.621Z,99883.69
2022-09-15T18:29:23.565Z,99890.41
2022-09-15T18:32:10.377Z,99886.81
2022-09-15T18:34:57.103Z,99882.09
2022-09-15T18:37:45.710Z,99884.94
2022-09-15T18:40:32.492Z,99892.53
2022-09-15T18:43:19.014Z,99885.59
2022-09-15T18:46:07.326Z,99886.47
2022-09-15T18:48:53.992Z,99891.94
2022-09-15T18:51:51.662Z,99883.19
2022-09-15T18:54:38.704Z,99889.47
2022-09-15T18:57:25.388Z,99895.03
2022-09-15T19:00:15.510Z,99887.81
2022-09-15T19:03:05.640Z,99898.25
2022-09-15T19:05:52.301Z,99901.69
2022-09-15T19:08:40.363Z,99906.41
2022-09-15T19:11:29.333Z,99882.44
2022-09-15T19:14:16.092Z,99902.03
2022-09-15T19:17:02.889Z,99910.00
2022-09-15T19:19:50.978Z,99901.09
2022-09-15T19:22:38.021Z,99889.22
2022-09-15T19:25:24.758Z,99891.56
2022-09-15T19:28:11.791Z,99881.19
2022-09-15T19:30:59.328Z,99892.94
2022-09-15T19:33:45.897Z,99892.50
2022-09-15T19:36:34.216Z,99887.34
2022-09-15T19:39:20.836Z,99891.41
2022-09-15T19:42:08.328Z,99880.25
2022-09-15T19:44:55.409Z,99880.41
2022-09-15T19:47:42.621Z,99886.41
2022-09-15T19:50:30.065Z,99892.75
2022-09-15T19:53:18.542Z,99896.44
2022-09-15T19:56:06.213Z,99896.34
2022-09-15T19:58:54.891Z,99903.38
2022-09-15T20:01:41.790Z,99892.28
2022-09-15T20:04:28.953Z,99900.34
2022-09-15T20:07:15.975Z,99903.16
2022-09-15T20:10:04.450Z,99904.41
2022-09-15T20:12:51.249Z,99913.06
2022-09-15T20:15:38.213Z,99919.16
2022-09-15T20:18:25.073Z,99920.16
2022-09-15T20:21:21.774Z,99921.19
2022-09-15T20:24:14.028Z,99918.38
2022-09-15T20:27:01.996Z,99926.91
2022-09-15T20:29:48.775Z,99928.00
2022-09-15T20:32:35.626Z,99928.94
2022-09-15T20:35:22.363Z,99924.72
2022-09-15T20:38:09.100Z,99933.78
2022-09-15T20:40:56.271Z,99925.59
2022-09-15T20:43:44.823Z,99914.44
2022-09-15T20:46:31.939Z,99922.84
2022-09-15T20:49:18.589Z,99926.22
2022-09-15T20:52:05.216Z,99925.06
2022-09-15T20:54:51.922Z,99922.16
2022-09-15T20:57:38.435Z,99922.00
2022-09-15T21:00:29.550Z,99919.91
2022-09-15T21:03:20.637Z,99925.22
2022-09-15T21:06:09.122Z,99927.09
2022-09-15T21:08:57.885Z,99928.97
2022-09-15T21:11:45.154Z,99916.94
2022-09-15T21:14:31.589Z,99929.66
2022-09-15T21:17:19.955Z,99918.72
2022-09-15T21:20:07.380Z,99919.19
2022-09-15T21:22:55.457Z,99925.66
2022-09-15T21:25:41.977Z,99912.63
2022-09-15T21:28:29.431Z,99925.34
2022-09-15T21:31:17.997Z,99927.94
2022-09-15T21:34:05.728Z,99924.28
2022-09-15T21:36:53.695Z,99930.91
2022-09-15T21:39:40.592Z,99929.66
2022-09-15T21:42:27.475Z,99926.63
2022-09-15T21:45:13.949Z,99931.53
2022-09-15T21:48:00.718Z,99932.56
2022-09-15T21:50:52.252Z,99933.19
2022-09-15T21:53:39.177Z,99946.44
2022-09-15T21:56:27.448Z,99946.88
2022-09-15T21:59:14.373Z,99949.13
2022-09-15T22:02:01.115Z,99954.06
2022-09-15T22:04:47.972Z,99947.56
2022-09-15T22:07:36.085Z,99961.84
2022-09-15T22:10:23.007Z,99962.84
2022-09-15T22:13:11.336Z,99967.44
2022-09-15T22:16:02.109Z,99969.88
2022-09-15T22:18:48.966Z,99966.94
2022-09-15T22:21:37.187Z,99969.81
2022-09-15T22:24:25.067Z,99969.16
2022-09-15T22:27:11.796Z,99965.59
2022-09-15T22:29:58.641Z,99962.00
2022-09-15T22:32:45.411Z,99970.44
2022-09-15T22:35:31.960Z,99976.97
2022-09-15T22:38:18.810Z,99971.81
2022-09-15T22:41:09.171Z,99970.25
2022-09-15T22:43:55.938Z,99973.84
2022-09-15T22:46:42.408Z,99977.34
2022-09-15T22:49:29.253Z,99977.50
2022-09-15T22:52:15.904Z,99975.47
2022-09-15T22:55:03.285Z,99979.34
2022-09-15T22:57:51.123Z,99989.25
2022-09-15T23:00:38.946Z,99989.41
2022-09-15T23:03:25.491Z,99985.88
2022-09-15T23:06:12.233Z,99988.84
2022-09-15T23:09:01.296Z,99980.94
2022-09-15T23:11:47.795Z,99979.09
2022-09-15T23:14:37.084Z,99981.81
2022-09-15T23:17:24.174Z,99981.09
2022-09-15T23:20:11.318Z,99976.94
2022-09-15T23:22:58.073Z,99979.66
2022-09-15T23:25:44.894Z,99976.47
2022-09-15T23:28:32.141Z,99974.44
2022-09-15T23:31:22.541Z,99967.09
2022-09-15T23:34:08.859Z,99979.47
2022-09-15T23:36:55.656Z,99977.81
2022-09-15T23:39:42.698Z,99978.97
2022-09-15T23:42:29.074Z,99985.28
2022-09-15T23:45:16.021Z,99979.97
2022-09-15T23:48:04.926Z,99981.84
2022-09-15T23:50:51.325Z,99980.97
2022-09-15T23:53:38.322Z,99983.75
2022-09-15T23:56:25.326Z,99992.06
2022-09-15T23:59:11.821Z,99977.41
